Time;durP1;ratioP1;P1;durP2;ratioP2;P2;SDS_P1;SDS_P2;PMS_P1;PMS_P2;Temp;Humidity;BMP_temperature;BMP_pressure;BME280_temperature;BME280_humidity;BME280_pressure;Samples;Min_cycle;Max_cycle;Signal;HPM_P1;HPM_P2
2021/12/23 00:00:13;;;;;;;33.40;23.90;;;-2.90;99.90;;;;;;5064756;28;20203;-74
2021/12/23 00:02:58;;;;;;;35.13;24.17;;;-2.80;99.90;;;;;;5069842;28;20666;-73
2021/12/23 00:05:46;;;;;;;34.95;24.27;;;-2.80;99.90;;;;;;5070795;28;20314;-73
2021/12/23 00:08:33;;;;;;;38.88;23.48;;;-2.80;99.90;;;;;;5072295;28;20196;-73
2021/12/23 00:11:18;;;;;;;34.53;24.20;;;-2.80;99.90;;;;;;5066810;28;20220;-73
2021/12/23 00:14:06;;;;;;;34.85;23.35;;;-2.80;99.90;;;;;;5060249;28;20693;-74
2021/12/23 00:17:17;;;;;;;36.92;23.73;;;-2.80;99.90;;;;;;5066463;28;20611;-74
2021/12/23 00:26:05;;;;;;;40.08;27.52;;;-3.10;99.90;;;;;;5074761;28;20257;-73
2021/12/23 00:28:51;;;;;;;39.53;26.30;;;-3.20;99.90;;;;;;5062673;28;20669;-73
2021/12/23 00:31:37;;;;;;;41.88;28.00;;;-3.10;99.90;;;;;;5072205;28;20208;-73
2021/12/23 00:34:23;;;;;;;50.53;29.10;;;-3.00;99.90;;;;;;5058076;28;20264;-73
2021/12/23 00:37:10;;;;;;;51.65;33.13;;;-3.10;99.90;;;;;;5065830;28;20700;-74
2021/12/23 00:39:57;;;;;;;44.92;29.08;;;-3.00;99.90;;;;;;5071129;28;20246;-73
2021/12/23 00:42:43;;;;;;;45.42;29.15;;;-3.10;99.90;;;;;;5067771;28;20196;-73
2021/12/23 00:45:29;;;;;;;54.15;34.88;;;-3.10;99.90;;;;;;5058851;28;20376;-73
2021/12/23 00:48:15;;;;;;;49.40;31.75;;;-3.10;99.90;;;;;;5065897;28;20216;-73
2021/12/23 00:51:01;;;;;;;51.15;32.25;;;-3.10;99.90;;;;;;5071692;28;20200;-73
2021/12/23 00:53:49;;;;;;;54.30;34.28;;;-3.10;99.90;;;;;;5059116;28;20213;-74
2021/12/23 00:56:38;;;;;;;50.25;32.45;;;-3.00;99.90;;;;;;5075100;28;20224;-74
2021/12/23 00:59:24;;;;;;;47.92;32.78;;;-2.90;99.90;;;;;;5066576;28;20390;-73
2021/12/23 01:02:12;;;;;;;46.47;31.20;;;-2.90;99.90;;;;;;5072612;28;20196;-73
2021/12/23 01:04:59;;;;;;;45.10;29.10;;;-2.70;99.90;;;;;;5061699;28;20343;-73
2021/12/23 01:07:45;;;;;;;43.60;29.58;;;-2.70;99.90;;;;;;5070699;28;20366;-73
2021/12/23 01:10:31;;;;;;;48.80;30.95;;;-2.80;99.90;;;;;;5070592;28;20208;-73
2021/12/23 01:13:19;;;;;;;56.08;32.35;;;-2.80;99.90;;;;;;5052273;28;20231;-73
2021/12/23 01:16:08;;;;;;;45.60;29.08;;;-2.80;99.90;;;;;;5067886;28;20220;-73
2021/12/23 01:18:55;;;;;;;45.03;28.50;;;-2.90;99.90;;;;;;5069649;28;20246;-73
2021/12/23 01:21:41;;;;;;;47.75;28.75;;;-2.80;99.90;;;;;;5067163;28;20224;-73
2021/12/23 01:24:30;;;;;;;44.70;30.48;;;-2.70;99.90;;;;;;5062979;28;20199;-73
2021/12/23 01:27:16;;;;;;;43.25;28.23;;;-2.70;99.90;;;;;;5063369;28;20224;-73
2021/12/23 01:30:04;;;;;;;46.60;30.80;;;-2.90;99.90;;;;;;5071916;28;20330;-73
2021/12/23 01:32:52;;;;;;;45.95;28.90;;;-2.90;99.90;;;;;;5065980;28;20204;-73
2021/12/23 01:35:40;;;;;;;41.92;29.10;;;-2.80;99.90;;;;;;5069383;28;20290;-74
2021/12/23 01:38:25;;;;;;;49.28;30.50;;;-2.90;99.90;;;;;;5059687;28;20271;-74
2021/12/23 01:41:12;;;;;;;46.45;28.83;;;-3.00;99.90;;;;;;5062672;28;20255;-74
2021/12/23 01:43:57;;;;;;;50.70;32.80;;;-3.00;99.90;;;;;;5056090;28;20555;-74
2021/12/23 01:46:45;;;;;;;49.90;30.95;;;-3.10;99.90;;;;;;5069158;28;20257;-74
2021/12/23 01:49:31;;;;;;;53.13;33.42;;;-3.10;99.90;;;;;;5070154;28;20278;-74
2021/12/23 01:52:17;;;;;;;46.58;30.48;;;-2.90;99.90;;;;;;5064677;28;20208;-73
2021/12/23 01:55:04;;;;;;;46.50;31.15;;;-2.90;99.90;;;;;;5068486;28;20719;-74
2021/12/23 01:57:51;;;;;;;51.45;31.65;;;-2.90;99.90;;;;;;5075044;28;20204;-74
2021/12/23 02:00:38;;;;;;;46.83;31.65;;;-2.80;99.90;;;;;;5065988;28;20259;-74
2021/12/23 02:03:25;;;;;;;59.20;32.67;;;-2.80;99.90;;;;;;5063797;28;20200;-74
2021/12/23 02:06:11;;;;;;;50.20;30.33;;;-2.80;99.90;;;;;;5072589;22;20236;-73
2021/12/23 02:08:57;;;;;;;45.17;29.60;;;-2.80;99.90;;;;;;5047869;28;20228;-74
2021/12/23 02:11:43;;;;;;;48.05;30.58;;;-2.70;99.90;;;;;;5045275;28;20212;-72
2021/12/23 02:14:28;;;;;;;50.17;31.45;;;-2.60;99.90;;;;;;5038894;28;20325;-73
2021/12/23 02:17:14;;;;;;;47.50;30.73;;;-2.60;99.90;;;;;;5042773;28;20226;-73
2021/12/23 02:20:01;;;;;;;46.55;30.38;;;-2.50;99.90;;;;;;5028816;28;20579;-74
2021/12/23 02:22:47;;;;;;;48.03;29.00;;;-2.30;99.90;;;;;;5033640;28;20208;-74
2021/12/23 02:25:33;;;;;;;41.85;30.55;;;-2.20;99.90;;;;;;5034683;28;20201;-74
2021/12/23 02:28:20;;;;;;;48.42;30.33;;;-2.20;99.90;;;;;;5043940;28;20303;-73
2021/12/23 02:31:06;;;;;;;44.03;29.77;;;-2.30;99.90;;;;;;5034882;28;20209;-73
2021/12/23 02:33:52;;;;;;;54.28;31.52;;;-2.30;99.90;;;;;;5036573;28;20250;-73
2021/12/23 02:36:39;;;;;;;46.13;30.58;;;-2.40;99.90;;;;;;5023462;28;20222;-73
2021/12/23 02:39:27;;;;;;;47.33;31.13;;;-2.30;99.90;;;;;;5030085;28;20563;-74
2021/12/23 02:42:13;;;;;;;50.65;32.33;;;-2.30;99.90;;;;;;5036675;28;20204;-73
2021/12/23 02:45:01;;;;;;;46.08;28.80;;;-2.30;99.90;;;;;;5043794;28;20212;-74
2021/12/23 02:47:48;;;;;;;48.15;30.17;;;-2.20;99.90;;;;;;5032603;28;20605;-73
2021/12/23 02:50:34;;;;;;;45.55;30.67;;;-2.30;99.90;;;;;;5044886;28;20205;-73
2021/12/23 02:53:21;;;;;;;52.05;29.90;;;-2.40;99.90;;;;;;5028555;28;20190;-74
2021/12/23 02:56:09;;;;;;;46.95;29.98;;;-2.40;99.90;;;;;;5028962;28;20708;-73
2021/12/23 02:58:54;;;;;;;46.33;29.80;;;-2.40;99.90;;;;;;5035745;28;20241;-74
2021/12/23 03:01:40;;;;;;;47.83;28.98;;;-2.20;99.90;;;;;;5031961;28;20202;-73
2021/12/23 03:04:26;;;;;;;45.33;29.35;;;-2.10;99.90;;;;;;5028619;28;20255;-72
2021/12/23 03:07:11;;;;;;;43.40;28.15;;;-2.00;99.90;;;;;;5035045;28;20228;-73
2021/12/23 03:09:58;;;;;;;47.28;28.65;;;-2.00;99.90;;;;;;5028263;28;20575;-74
2021/12/23 03:12:44;;;;;;;60.22;32.28;;;-2.10;99.90;;;;;;5026230;28;20389;-74
2021/12/23 03:15:29;;;;;;;43.95;30.85;;;-2.30;99.90;;;;;;5033668;28;20201;-74
2021/12/23 03:18:15;;;;;;;55.70;33.55;;;-2.20;99.90;;;;;;5030087;28;20336;-73
2021/12/23 03:21:01;;;;;;;55.70;34.60;;;-2.10;99.90;;;;;;5036284;28;20213;-73
2021/12/23 03:23:47;;;;;;;54.97;35.50;;;-2.10;99.90;;;;;;5031127;28;20225;-73
2021/12/23 03:26:34;;;;;;;57.38;34.10;;;-2.00;99.90;;;;;;5030414;28;20229;-72
2021/12/23 03:29:19;;;;;;;49.28;31.55;;;-2.10;99.90;;;;;;5033356;28;20258;-74
2021/12/23 03:32:06;;;;;;;48.45;31.85;;;-2.20;99.90;;;;;;5031645;28;20291;-73
2021/12/23 03:34:51;;;;;;;45.50;30.77;;;-2.10;99.90;;;;;;5036723;28;20208;-74
2021/12/23 03:37:37;;;;;;;46.95;30.25;;;-2.10;99.90;;;;;;5037831;28;20836;-73
2021/12/23 03:40:23;;;;;;;56.08;32.92;;;-2.20;99.90;;;;;;5031993;28;20270;-74
2021/12/23 03:43:12;;;;;;;50.42;31.05;;;-2.10;99.90;;;;;;5030666;28;20217;-73
2021/12/23 03:45:58;;;;;;;48.45;30.75;;;-2.10;99.90;;;;;;5035278;28;20226;-74
2021/12/23 03:48:43;;;;;;;53.10;31.98;;;-2.00;99.90;;;;;;5040404;28;20728;-74
2021/12/23 03:51:29;;;;;;;56.42;32.25;;;-2.10;99.90;;;;;;5035249;28;20214;-73
2021/12/23 03:54:14;;;;;;;52.50;31.02;;;-2.20;99.90;;;;;;5029751;28;20209;-74
2021/12/23 03:57:00;;;;;;;46.05;31.08;;;-2.30;99.90;;;;;;5040803;28;20224;-74
2021/12/23 03:59:47;;;;;;;45.85;29.17;;;-2.40;99.90;;;;;;5028643;28;20569;-74
2021/12/23 04:02:33;;;;;;;50.90;30.77;;;-2.40;99.90;;;;;;5029914;28;20670;-73
2021/12/23 04:05:20;;;;;;;47.22;29.75;;;-2.40;99.90;;;;;;5036202;28;20249;-73
2021/12/23 04:08:06;;;;;;;53.88;30.95;;;-2.30;99.90;;;;;;5026583;28;20315;-73
2021/12/23 04:10:52;;;;;;;49.28;31.30;;;-2.30;99.90;;;;;;5030543;28;20213;-74
2021/12/23 04:13:37;;;;;;;45.63;29.60;;;-2.30;99.90;;;;;;5033212;28;20612;-74
2021/12/23 04:16:25;;;;;;;43.78;29.25;;;-2.30;99.90;;;;;;5036169;28;20221;-73
2021/12/23 04:19:11;;;;;;;48.08;29.50;;;-2.20;99.90;;;;;;5026891;28;20561;-73
2021/12/23 04:21:57;;;;;;;48.00;28.35;;;-2.20;99.90;;;;;;5034847;28;20677;-73
2021/12/23 04:24:43;;;;;;;46.85;30.20;;;-2.20;99.90;;;;;;5037423;28;20209;-73
2021/12/23 04:27:28;;;;;;;50.50;30.50;;;-2.10;99.90;;;;;;5028109;28;20220;-73
2021/12/23 04:30:15;;;;;;;50.63;28.83;;;-2.00;99.90;;;;;;5036191;28;20255;-73
2021/12/23 04:33:02;;;;;;;46.65;29.45;;;-2.10;99.90;;;;;;5038318;28;20205;-72
2021/12/23 04:35:48;;;;;;;46.50;29.27;;;-2.10;99.90;;;;;;5028635;28;20224;-73
2021/12/23 04:38:34;;;;;;;42.17;29.10;;;-2.10;99.90;;;;;;5028695;28;20224;-73
2021/12/23 04:41:19;;;;;;;46.47;27.58;;;-2.10;99.90;;;;;;5031060;28;20275;-74
2021/12/23 04:44:05;;;;;;;37.88;26.02;;;-2.10;99.90;;;;;;5038781;28;20605;-74
2021/12/23 04:46:51;;;;;;;46.05;27.75;;;-2.20;99.90;;;;;;5038000;28;20263;-73
2021/12/23 04:49:37;;;;;;;41.78;27.45;;;-2.30;99.90;;;;;;5039019;28;20714;-73
2021/12/23 04:52:23;;;;;;;41.70;26.92;;;-2.40;99.90;;;;;;5027519;28;20273;-73
2021/12/23 04:55:10;;;;;;;42.03;28.48;;;-2.40;99.90;;;;;;5027264;28;20204;-74
2021/12/23 04:57:56;;;;;;;48.50;30.27;;;-2.50;99.90;;;;;;5032554;28;20248;-73
2021/12/23 05:00:45;;;;;;;50.40;31.20;;;-2.60;99.90;;;;;;5028301;28;20287;-73
2021/12/23 05:03:30;;;;;;;48.28;30.73;;;-2.50;99.90;;;;;;5031111;28;20685;-74
2021/12/23 05:06:17;;;;;;;47.63;30.80;;;-2.40;99.90;;;;;;5032990;28;20631;-73
2021/12/23 05:09:04;;;;;;;44.45;29.33;;;-2.40;99.90;;;;;;5018777;28;20217;-73
2021/12/23 05:11:49;;;;;;;47.78;30.13;;;-2.20;99.90;;;;;;5038453;28;20295;-73
2021/12/23 05:14:35;;;;;;;49.20;30.65;;;-2.10;99.90;;;;;;5036690;28;20268;-73
2021/12/23 05:17:21;;;;;;;46.58;29.25;;;-2.10;99.90;;;;;;5035072;28;20726;-73
2021/12/23 05:20:09;;;;;;;51.60;32.83;;;-2.00;99.90;;;;;;5016985;28;20316;-74
2021/12/23 05:22:56;;;;;;;51.13;30.77;;;-2.10;99.90;;;;;;5032369;28;20206;-73
2021/12/23 05:25:42;;;;;;;52.83;30.48;;;-2.10;99.90;;;;;;5033153;28;20201;-72
2021/12/23 05:28:28;;;;;;;51.83;33.15;;;-2.10;99.90;;;;;;5020369;28;20300;-74
2021/12/23 05:31:14;;;;;;;50.35;31.65;;;-2.30;99.90;;;;;;5026816;28;20274;-73
2021/12/23 05:34:00;;;;;;;50.13;31.35;;;-2.30;99.90;;;;;;5031040;28;20571;-74
2021/12/23 05:36:46;;;;;;;47.08;29.45;;;-2.30;99.90;;;;;;5033200;28;20228;-73
2021/12/23 05:39:33;;;;;;;46.33;31.60;;;-2.20;99.90;;;;;;5025712;28;20203;-73
2021/12/23 05:42:18;;;;;;;42.83;29.15;;;-2.20;99.90;;;;;;5030367;28;20670;-73
2021/12/23 05:45:05;;;;;;;46.58;28.90;;;-2.10;99.90;;;;;;5030915;28;20200;-74
2021/12/23 05:47:52;;;;;;;46.33;31.33;;;-2.10;99.90;;;;;;5027059;28;20200;-72
2021/12/23 05:50:38;;;;;;;40.25;28.95;;;-2.10;99.90;;;;;;5026962;28;20201;-73
2021/12/23 05:53:23;;;;;;;42.30;28.75;;;-2.10;99.90;;;;;;5031216;28;20682;-74
2021/12/23 05:56:10;;;;;;;45.05;29.55;;;-2.20;99.90;;;;;;5032650;28;20220;-73
2021/12/23 05:58:56;;;;;;;44.10;27.52;;;-2.10;99.90;;;;;;5026039;28;20194;-74
2021/12/23 06:01:42;;;;;;;47.40;29.98;;;-2.00;99.90;;;;;;5036467;28;20685;-73
2021/12/23 06:04:28;;;;;;;43.28;27.60;;;-2.00;99.90;;;;;;5027156;28;20213;-73
2021/12/23 06:07:14;;;;;;;39.35;26.70;;;-1.90;99.90;;;;;;5030662;28;20283;-73
2021/12/23 06:09:59;;;;;;;41.70;26.95;;;-2.00;99.90;;;;;;5026494;28;20644;-73
2021/12/23 06:12:47;;;;;;;43.33;27.27;;;-1.90;99.90;;;;;;5022404;28;20323;-74
2021/12/23 06:15:33;;;;;;;43.33;27.75;;;-1.90;99.90;;;;;;5035995;28;20677;-73
2021/12/23 06:18:18;;;;;;;43.42;29.05;;;-2.00;99.90;;;;;;5033940;28;20221;-73
2021/12/23 06:21:04;;;;;;;42.05;27.63;;;-2.00;99.90;;;;;;5034766;28;20327;-73
2021/12/23 06:23:50;;;;;;;47.85;27.85;;;-2.00;99.90;;;;;;5032663;28;20288;-74
2021/12/23 06:26:36;;;;;;;48.05;29.05;;;-2.00;99.90;;;;;;5029311;28;20712;-73
2021/12/23 06:29:23;;;;;;;43.92;29.63;;;-2.00;99.90;;;;;;5033253;28;20229;-74
2021/12/23 06:32:10;;;;;;;44.85;29.42;;;-2.00;99.90;;;;;;5026547;28;20303;-73
2021/12/23 06:34:55;;;;;;;46.47;29.30;;;-2.10;99.90;;;;;;5031910;28;20200;-73
2021/12/23 06:37:41;;;;;;;49.67;30.80;;;-2.10;99.90;;;;;;5036170;28;20221;-73
2021/12/23 06:40:27;;;;;;;44.03;29.50;;;-2.40;99.90;;;;;;5033194;28;20193;-74
2021/12/23 06:43:13;;;;;;;50.30;30.60;;;-2.40;99.90;;;;;;5026912;28;20238;-73
2021/12/23 06:46:02;;;;;;;42.60;28.25;;;-2.50;99.90;;;;;;5039279;28;20288;-73
2021/12/23 06:48:48;;;;;;;48.22;28.45;;;-2.50;99.90;;;;;;5030460;28;20672;-74
2021/12/23 06:51:33;;;;;;;46.58;30.52;;;-2.50;99.90;;;;;;5038566;28;20263;-73
2021/12/23 06:54:19;;;;;;;46.35;30.35;;;-2.30;99.90;;;;;;5042740;28;20332;-73
2021/12/23 06:57:06;;;;;;;46.70;29.17;;;-2.30;99.90;;;;;;5041460;28;20740;-73
2021/12/23 06:59:51;;;;;;;48.83;32.55;;;-2.20;99.90;;;;;;5043027;28;20200;-73
2021/12/23 07:02:39;;;;;;;55.05;30.83;;;-2.30;99.90;;;;;;5040674;28;20213;-74
2021/12/23 07:05:26;;;;;;;46.30;30.75;;;-2.40;99.90;;;;;;5028879;28;20671;-74
2021/12/23 07:08:24;;;;;;;48.80;29.08;;;-2.50;99.90;;;;;;5033540;28;20703;-74
2021/12/23 07:11:10;;;;;;;45.88;30.33;;;-2.50;99.90;;;;;;5035387;28;20276;-73
2021/12/23 07:13:55;;;;;;;48.03;29.95;;;-2.30;99.90;;;;;;5048758;28;20308;-73
2021/12/23 07:16:42;;;;;;;43.58;30.77;;;-2.20;99.90;;;;;;5038795;28;20317;-74
2021/12/23 07:19:29;;;;;;;44.53;28.55;;;-2.10;99.90;;;;;;5033970;28;20268;-74
2021/12/23 07:22:15;;;;;;;43.55;27.52;;;-2.20;99.90;;;;;;5026704;28;20193;-74
2021/12/23 07:25:00;;;;;;;58.22;33.90;;;-2.20;99.90;;;;;;5044346;28;20291;-73
2021/12/23 07:27:46;;;;;;;41.83;28.92;;;-2.30;99.90;;;;;;5028982;28;20218;-73
2021/12/23 07:30:32;;;;;;;43.70;29.77;;;-2.30;99.90;;;;;;5037145;28;20229;-73
2021/12/23 07:33:18;;;;;;;41.42;27.25;;;-2.20;99.90;;;;;;5027387;28;20276;-73
2021/12/23 07:36:06;;;;;;;42.17;29.00;;;-2.20;99.90;;;;;;5025399;28;20241;-73
2021/12/23 07:38:52;;;;;;;42.05;27.27;;;-2.10;99.90;;;;;;5027787;28;20693;-73
2021/12/23 07:41:38;;;;;;;43.75;28.35;;;-2.00;99.90;;;;;;5034549;28;20560;-74
2021/12/23 07:44:23;;;;;;;43.85;29.85;;;-2.00;99.90;;;;;;5013864;28;20198;-73
2021/12/23 07:47:09;;;;;;;44.67;29.27;;;-2.10;99.90;;;;;;5033691;28;20709;-71
2021/12/23 07:49:55;;;;;;;49.22;31.83;;;-2.10;99.90;;;;;;5029745;28;20303;-73
2021/12/23 07:52:42;;;;;;;50.45;31.08;;;-2.10;99.90;;;;;;5030416;28;20284;-73
2021/12/23 07:55:28;;;;;;;59.05;33.95;;;-2.10;99.90;;;;;;5030145;28;20244;-72
2021/12/23 07:58:14;;;;;;;51.30;31.95;;;-2.10;99.90;;;;;;5024481;28;20586;-72
2021/12/23 08:01:00;;;;;;;50.60;34.35;;;-2.00;99.90;;;;;;5040075;28;20209;-72
2021/12/23 08:03:45;;;;;;;43.60;31.60;;;-2.10;99.90;;;;;;5037483;28;20208;-72
2021/12/23 08:06:31;;;;;;;54.75;34.58;;;-2.00;99.90;;;;;;5037852;28;20588;-73
2021/12/23 08:09:18;;;;;;;58.28;33.63;;;-1.90;99.90;;;;;;5026884;28;20300;-73
2021/12/23 08:12:05;;;;;;;52.90;34.03;;;-1.90;99.90;;;;;;5014140;28;20210;-73
2021/12/23 08:14:51;;;;;;;52.58;33.65;;;-1.90;99.90;;;;;;5037588;28;20281;-73
2021/12/23 08:17:39;;;;;;;54.20;34.80;;;-1.80;99.90;;;;;;5025144;28;20296;-72
2021/12/23 08:20:25;;;;;;;58.67;39.65;;;-1.80;99.90;;;;;;5033811;28;20200;-73
2021/12/23 08:23:10;;;;;;;52.28;36.65;;;-1.70;99.90;;;;;;5025433;28;20217;-73
2021/12/23 08:26:02;;;;;;;64.72;36.92;;;-1.70;99.90;;;;;;5038278;28;20291;-72
2021/12/23 08:28:47;;;;;;;57.28;35.45;;;-1.70;99.90;;;;;;5030389;28;20697;-73
2021/12/23 08:31:33;;;;;;;50.63;33.95;;;-1.60;99.90;;;;;;5026014;28;20579;-73
2021/12/23 08:34:19;;;;;;;56.45;35.22;;;-1.40;99.90;;;;;;5035209;28;20220;-73
2021/12/23 08:37:10;;;;;;;56.72;34.42;;;-1.40;99.90;;;;;;5024924;28;20230;-73
2021/12/23 08:39:56;;;;;;;57.13;36.60;;;-1.30;99.90;;;;;;5044418;28;20197;-73
2021/12/23 08:42:43;;;;;;;56.53;35.20;;;-1.20;99.90;;;;;;5025118;28;20320;-73
2021/12/23 08:45:31;;;;;;;57.42;34.65;;;-1.20;99.90;;;;;;5027797;28;20200;-73
2021/12/23 08:48:17;;;;;;;53.78;35.22;;;-1.10;99.90;;;;;;5021299;28;20201;-73
2021/12/23 08:51:02;;;;;;;59.67;35.70;;;-1.10;99.90;;;;;;5034000;28;20272;-73
2021/12/23 08:53:48;;;;;;;50.20;34.60;;;-1.00;99.90;;;;;;5023609;28;20202;-73
2021/12/23 08:56:33;;;;;;;52.95;35.08;;;-1.00;99.90;;;;;;5016491;28;20220;-73
2021/12/23 08:59:20;;;;;;;53.78;35.15;;;-0.90;99.90;;;;;;5035200;28;20226;-73
2021/12/23 09:02:06;;;;;;;54.75;36.47;;;-1.00;99.90;;;;;;5029341;28;20329;-73
2021/12/23 09:04:52;;;;;;;59.85;37.75;;;-0.90;99.90;;;;;;5035122;28;20570;-71
2021/12/23 09:07:38;;;;;;;59.65;38.10;;;-0.80;99.90;;;;;;5017621;28;20320;-70
2021/12/23 09:10:24;;;;;;;64.82;38.75;;;-0.80;99.90;;;;;;5030091;28;20226;-72
2021/12/23 09:13:09;;;;;;;67.07;39.58;;;-0.70;99.90;;;;;;5020584;28;20254;-71
2021/12/23 09:15:57;;;;;;;58.95;37.50;;;-0.70;99.90;;;;;;5030149;28;20296;-74
2021/12/23 09:18:43;;;;;;;62.00;37.22;;;-0.60;99.90;;;;;;5028885;28;20309;-73
2021/12/23 09:21:29;;;;;;;66.57;34.85;;;-0.50;99.90;;;;;;5035236;28;20561;-72
2021/12/23 09:24:14;;;;;;;62.00;36.67;;;-0.50;99.90;;;;;;5018697;28;20215;-72
2021/12/23 09:27:09;;;;;;;61.45;37.83;;;-0.50;99.90;;;;;;5037392;28;20271;-72
2021/12/23 09:33:02;;;;;;;56.40;38.28;;;-0.30;99.90;;;;;;5036172;28;20196;-73
2021/12/23 09:35:48;;;;;;;72.65;45.25;;;-0.10;99.90;;;;;;5020354;28;20311;-72
2021/12/23 09:38:34;;;;;;;73.75;44.92;;;-0.10;99.90;;;;;;5029151;28;20248;-73
2021/12/23 09:41:22;;;;;;;73.00;44.05;;;-0.10;99.90;;;;;;5030961;28;20201;-74
2021/12/23 09:44:09;;;;;;;70.28;42.88;;;-0.10;99.90;;;;;;5036672;28;20582;-73
2021/12/23 09:46:57;;;;;;;79.40;41.95;;;0.00;99.90;;;;;;5030081;28;20713;-73
2021/12/23 09:49:46;;;;;;;67.72;44.22;;;0.00;99.90;;;;;;5030438;28;20726;-73
2021/12/23 09:52:35;;;;;;;64.03;42.10;;;0.10;99.90;;;;;;5030719;28;20563;-73
2021/12/23 09:55:23;;;;;;;60.35;40.78;;;0.10;99.90;;;;;;5034483;28;20197;-72
2021/12/23 09:58:08;;;;;;;60.42;40.60;;;0.20;99.90;;;;;;5019470;28;20278;-73
2021/12/23 10:00:55;;;;;;;64.20;39.33;;;0.20;99.90;;;;;;5028202;28;20201;-73
2021/12/23 10:03:40;;;;;;;65.03;39.13;;;0.30;99.90;;;;;;5029745;28;20201;-73
2021/12/23 10:06:28;;;;;;;60.85;37.92;;;0.30;99.90;;;;;;5020221;28;20304;-73
2021/12/23 10:09:20;;;;;;;56.20;36.67;;;0.40;99.90;;;;;;5023750;28;20264;-73
2021/12/23 10:12:56;;;;;;;60.70;38.47;;;0.40;99.90;;;;;;5036835;28;20202;-73
2021/12/23 10:31:37;;;;;;;53.28;33.42;;;0.90;99.90;;;;;;4968876;28;20279;-73
2021/12/23 10:37:38;;;;;;;50.90;30.88;;;1.10;99.90;;;;;;5017242;28;20576;-73
2021/12/23 10:40:23;;;;;;;49.17;29.02;;;1.10;99.90;;;;;;5029186;28;20566;-73
2021/12/23 10:43:11;;;;;;;43.15;24.98;;;1.20;99.90;;;;;;5016817;28;20205;-73
2021/12/23 10:46:00;;;;;;;43.95;24.50;;;1.30;99.90;;;;;;5028694;28;20705;-73
2021/12/23 10:48:52;;;;;;;40.47;24.63;;;1.50;99.90;;;;;;5035184;28;20205;-72
2021/12/23 10:51:56;;;;;;;42.85;25.25;;;1.50;99.90;;;;;;5035344;28;20197;-73
2021/12/23 10:58:03;;;;;;;39.75;22.92;;;1.60;99.90;;;;;;5029319;28;20209;-73
2021/12/23 11:00:52;;;;;;;42.63;24.95;;;1.70;99.90;;;;;;5027357;28;20201;-73
2021/12/23 11:03:42;;;;;;;37.67;23.75;;;1.80;99.90;;;;;;5015400;28;20238;-73
2021/12/23 11:06:32;;;;;;;42.20;23.02;;;1.90;99.90;;;;;;5020243;28;20225;-73
2021/12/23 11:09:33;;;;;;;41.70;21.85;;;2.00;99.90;;;;;;5024522;28;20194;-73
2021/12/23 11:37:39;;;;;;;29.65;17.42;;;2.80;99.90;;;;;;5027381;28;20229;-71
2021/12/23 11:40:48;;;;;;;31.13;17.13;;;2.90;99.90;;;;;;5027230;28;20193;-70
2021/12/23 11:43:49;;;;;;;34.08;17.58;;;3.10;99.90;;;;;;5032489;28;20678;-71
2021/12/23 11:46:39;;;;;;;29.73;17.75;;;3.20;99.90;;;;;;5025383;28;20718;-71
2021/12/23 11:49:25;;;;;;;24.00;15.13;;;3.30;99.90;;;;;;5026199;28;20195;-71
2021/12/23 11:52:11;;;;;;;27.58;15.57;;;3.40;99.90;;;;;;5019263;28;20332;-73
2021/12/23 11:54:56;;;;;;;36.65;18.88;;;3.40;99.90;;;;;;5029261;28;20204;-73
2021/12/23 11:57:43;;;;;;;33.25;18.42;;;3.40;99.90;;;;;;5038216;28;20636;-73
2021/12/23 12:00:41;;;;;;;32.03;18.20;;;3.50;99.90;;;;;;5038476;28;20200;-73
2021/12/23 12:03:27;;;;;;;30.35;16.98;;;3.50;99.90;;;;;;5030667;28;20202;-73
2021/12/23 12:06:15;;;;;;;31.35;16.25;;;3.50;99.90;;;;;;5032407;28;20303;-73
2021/12/23 12:09:12;;;;;;;27.40;17.48;;;3.50;99.90;;;;;;5020750;28;20210;-73
2021/12/23 12:12:11;;;;;;;32.15;16.90;;;3.50;99.90;;;;;;5031481;28;20213;-73
2021/12/23 12:14:57;;;;;;;27.13;15.48;;;3.60;99.90;;;;;;5038562;28;20279;-74
2021/12/23 12:17:44;;;;;;;28.83;16.38;;;3.60;99.90;;;;;;5023067;28;20273;-72
2021/12/23 12:20:37;;;;;;;25.23;17.85;;;3.70;99.90;;;;;;5022590;28;20205;-72
2021/12/23 12:23:29;;;;;;;29.45;17.40;;;3.80;99.90;;;;;;5032406;28;20201;-73
2021/12/23 12:26:26;;;;;;;28.67;16.90;;;3.80;99.90;;;;;;5035915;28;20353;-70
2021/12/23 12:29:14;;;;;;;29.52;15.98;;;3.90;99.90;;;;;;5030752;28;20249;-69
2021/12/23 12:31:59;;;;;;;28.40;15.82;;;3.90;99.90;;;;;;5035961;28;20205;-70
2021/12/23 12:34:54;;;;;;;25.55;15.63;;;4.00;99.90;;;;;;5022256;28;20257;-70
2021/12/23 12:37:43;;;;;;;24.88;15.65;;;4.00;99.90;;;;;;5027149;28;20273;-71
2021/12/23 12:40:56;;;;;;;27.80;16.27;;;4.00;99.90;;;;;;5028465;28;20193;-72
2021/12/23 12:43:53;;;;;;;31.92;16.23;;;4.00;99.90;;;;;;5026385;28;20606;-70
2021/12/23 12:46:56;;;;;;;22.92;15.18;;;4.00;99.90;;;;;;5033008;28;20237;-71
2021/12/23 12:49:48;;;;;;;24.15;14.40;;;4.00;99.90;;;;;;5032503;28;20201;-71
2021/12/23 12:52:38;;;;;;;26.73;14.65;;;4.00;99.90;;;;;;5032561;28;20678;-71
2021/12/23 12:55:26;;;;;;;25.92;14.90;;;4.00;99.90;;;;;;5014253;28;20361;-71
2021/12/23 12:58:11;;;;;;;26.58;14.63;;;4.00;99.90;;;;;;5036000;28;20313;-71
2021/12/23 13:01:02;;;;;;;23.27;15.02;;;4.00;99.90;;;;;;5031287;28;20202;-71
2021/12/23 13:03:53;;;;;;;21.73;13.55;;;3.90;99.90;;;;;;5030034;28;20206;-72
2021/12/23 13:06:39;;;;;;;24.40;13.77;;;3.90;99.90;;;;;;5032390;28;20356;-71
2021/12/23 13:09:31;;;;;;;19.92;12.75;;;3.90;99.90;;;;;;5032748;28;20782;-71
2021/12/23 13:12:30;;;;;;;21.00;13.93;;;4.00;99.90;;;;;;5032076;28;20229;-71
2021/12/23 13:15:19;;;;;;;20.42;13.23;;;4.00;99.90;;;;;;5030741;28;20280;-71
2021/12/23 13:18:07;;;;;;;21.95;12.90;;;4.10;99.90;;;;;;5032371;28;20213;-71
2021/12/23 13:20:54;;;;;;;22.77;14.57;;;4.20;99.90;;;;;;5032579;28;20197;-71
2021/12/23 13:23:45;;;;;;;21.90;13.00;;;4.30;99.90;;;;;;5029150;28;20283;-71
2021/12/23 13:26:32;;;;;;;22.25;13.65;;;4.40;99.90;;;;;;5037932;28;20221;-72
2021/12/23 13:29:21;;;;;;;23.02;13.52;;;4.50;99.90;;;;;;5025046;28;20328;-71
2021/12/23 13:32:07;;;;;;;23.95;14.57;;;4.50;99.90;;;;;;5032290;28;20276;-71
2021/12/23 13:34:53;;;;;;;19.88;12.52;;;4.50;99.90;;;;;;5013969;28;20213;-71
2021/12/23 13:37:44;;;;;;;26.52;15.75;;;4.40;99.90;;;;;;5012033;28;20221;-71
2021/12/23 13:40:31;;;;;;;25.08;15.02;;;4.50;99.90;;;;;;5012185;28;20623;-71
2021/12/23 13:43:31;;;;;;;21.67;14.25;;;4.50;99.90;;;;;;5016570;28;20448;-71
2021/12/23 13:46:17;;;;;;;40.67;19.55;;;4.50;99.90;;;;;;5031996;28;20225;-72
2021/12/23 13:49:05;;;;;;;25.90;15.50;;;4.50;99.90;;;;;;5032173;28;20209;-71
2021/12/23 13:51:53;;;;;;;26.42;14.80;;;4.40;99.90;;;;;;5032021;28;20289;-71
2021/12/23 13:54:41;;;;;;;23.42;14.45;;;4.50;99.90;;;;;;5029352;28;20305;-71
2021/12/23 13:57:29;;;;;;;25.80;12.95;;;4.50;99.90;;;;;;5039500;28;20238;-71
2021/12/23 14:00:20;;;;;;;19.48;11.80;;;4.50;99.90;;;;;;5024158;28;20202;-71
2021/12/23 14:03:08;;;;;;;23.67;13.73;;;4.50;99.90;;;;;;5028876;28;20208;-71
2021/12/23 14:05:54;;;;;;;23.38;12.63;;;4.50;99.90;;;;;;5031930;28;20237;-72
2021/12/23 14:08:43;;;;;;;21.83;13.20;;;4.40;99.90;;;;;;5031773;28;20197;-72
2021/12/23 14:11:29;;;;;;;20.20;12.00;;;4.40;99.90;;;;;;5031437;28;20322;-72
2021/12/23 14:14:19;;;;;;;20.40;12.38;;;4.30;99.90;;;;;;5028671;28;20205;-72
2021/12/23 14:17:05;;;;;;;24.60;16.05;;;4.40;99.90;;;;;;5031370;28;20356;-72
2021/12/23 14:23:13;;;;;;;19.25;10.73;;;4.50;99.90;;;;;;5008862;28;20260;-72
2021/12/23 14:26:02;;;;;;;19.30;11.30;;;4.60;99.90;;;;;;5023200;28;20225;-72
2021/12/23 14:28:49;;;;;;;17.38;11.15;;;4.70;99.90;;;;;;5021298;28;20208;-73
2021/12/23 14:31:40;;;;;;;17.65;11.00;;;4.80;99.90;;;;;;5026463;28;20600;-72
2021/12/23 14:34:28;;;;;;;16.95;10.85;;;4.80;99.90;;;;;;5034106;28;20209;-72
2021/12/23 14:37:16;;;;;;;19.30;11.90;;;5.00;99.90;;;;;;5022630;28;20248;-72
2021/12/23 14:40:02;;;;;;;18.23;10.95;;;5.10;99.90;;;;;;5026677;28;20205;-72
2021/12/23 14:42:58;;;;;;;19.23;11.93;;;5.20;99.90;;;;;;5025269;28;20317;-72
2021/12/23 14:45:53;;;;;;;23.13;14.23;;;5.40;99.90;;;;;;5035707;28;20209;-72
2021/12/23 14:48:56;;;;;;;26.45;12.10;;;5.40;99.90;;;;;;5034428;28;20205;-72
2021/12/23 14:51:43;;;;;;;25.40;12.52;;;5.40;99.90;;;;;;5038183;28;20211;-72
2021/12/23 14:54:29;;;;;;;22.58;14.13;;;5.50;99.90;;;;;;5035072;28;20202;-72
2021/12/23 14:57:17;;;;;;;19.33;11.65;;;5.50;99.90;;;;;;5032952;28;20648;-72
2021/12/23 15:00:09;;;;;;;20.02;10.63;;;5.60;99.90;;;;;;5029944;28;20205;-72
2021/12/23 15:03:02;;;;;;;19.48;11.85;;;5.80;99.90;;;;;;5032170;28;20197;-71
2021/12/23 15:05:49;;;;;;;19.60;12.30;;;5.80;99.90;;;;;;5034567;28;20229;-72
2021/12/23 15:08:35;;;;;;;22.27;12.50;;;5.80;99.90;;;;;;5036707;28;20264;-72
2021/12/23 15:11:28;;;;;;;18.52;10.35;;;5.80;99.90;;;;;;5032626;28;20217;-72
2021/12/23 15:14:16;;;;;;;18.35;12.07;;;5.90;99.90;;;;;;5033826;28;20200;-72